Time,TemperatureF,DewpointF,PressureIn,WindDirection,WindDirectionDegrees,WindSpeedMPH,WindSpeedGustMPH,Humidity,HourlyPrecipIn,Conditions,Clouds,dailyrainin,SoftwareType,DateUTC
2013-02-25 09:31:00,32.8,26.7,30.24,NW,311,2.0,2.0,78,0.00,,,0.00,Wunderground v.1.15,2013-02-25 14:31:00,
2013-02-25 09:37:00,33.4,26.3,30.24,NW,311,2.0,3.0,75,0.00,,,0.00,Wunderground v.1.15,2013-02-25 14:37:00,
2013-02-25 09:43:00,33.5,25.4,30.24,NW,313,2.0,3.0,72,0.00,,,0.00,Wunderground v.1.15,2013-02-25 14:43:00,
2013-02-25 09:48:00,34.1,25.7,30.24,NW,314,2.0,3.0,71,0.00,,,0.00,Wunderground v.1.15,2013-02-25 14:48:00,
2013-02-25 09:54:00,34.7,25.6,30.23,NW,320,1.0,1.0,69,0.00,,,0.00,Wunderground v.1.15,2013-02-25 14:54:00,
2013-02-25 09:59:00,35.1,25.6,30.23,NW,320,1.0,1.0,68,0.00,,,0.00,Wunderground v.1.15,2013-02-25 14:59:00,
2013-02-25 10:04:00,35.6,25.7,30.22,NW,321,1.0,2.0,67,0.00,,,0.00,Wunderground v.1.15,2013-02-25 15:04:00,
2013-02-25 10:10:00,35.6,25.0,30.22,NNW,331,1.0,2.0,65,0.00,,,0.00,Wunderground v.1.15,2013-02-25 15:10:00,
2013-02-25 10:15:00,36.2,25.2,30.22,NE,37,2.0,4.0,64,0.00,,,0.00,Wunderground v.1.15,2013-02-25 15:15:00,
2013-02-25 10:20:00,36.5,24.7,30.22,NE,37,1.0,1.0,62,0.00,,,0.00,Wunderground v.1.15,2013-02-25 15:20:00,
2013-02-25 10:25:00,36.4,24.6,30.22,NE,47,1.0,2.0,62,0.00,,,0.00,Wunderground v.1.15,2013-02-25 15:25:00,
2013-02-25 10:31:00,36.6,24.8,30.21,NE,47,1.0,2.0,62,0.00,,,0.00,Wunderground v.1.15,2013-02-25 15:31:00,
2013-02-25 10:36:00,36.9,25.1,30.21,NE,47,1.0,2.0,62,0.00,,,0.00,Wunderground v.1.15,2013-02-25 15:36:00,
2013-02-25 10:42:00,37.0,25.6,30.22,East,83,1.0,6.0,63,0.00,,,0.00,Wunderground v.1.15,2013-02-25 15:42:00,
2013-02-25 10:47:00,37.1,24.9,30.21,East,90,2.0,6.0,61,0.00,,,0.00,Wunderground v.1.15,2013-02-25 15:47:00,
2013-02-25 10:53:00,37.1,24.5,30.21,East,90,2.0,3.0,60,0.00,,,0.00,Wunderground v.1.15,2013-02-25 15:53:00,
2013-02-25 10:58:00,37.1,24.5,30.22,East,90,2.0,3.0,60,0.00,,,0.00,Wunderground v.1.15,2013-02-25 15:58:00,
2013-02-25 11:04:00,37.4,25.2,30.22,East,90,1.0,1.0,61,0.00,,,0.00,Wunderground v.1.15,2013-02-25 16:04:00,
2013-02-25 11:09:00,38.6,25.9,30.21,ESE,115,2.0,5.0,60,0.00,,,0.00,Wunderground v.1.15,2013-02-25 16:09:00,
2013-02-25 11:14:00,38.7,25.2,30.21,ESE,111,3.0,5.0,58,0.00,,,0.00,Wunderground v.1.15,2013-02-25 16:14:00,
2013-02-25 11:20:00,37.6,24.1,30.21,ESE,111,2.0,2.0,58,0.00,,,0.00,Wunderground v.1.15,2013-02-25 16:20:00,
2013-02-25 11:25:00,37.8,24.7,30.22,ESE,111,1.0,2.0,59,0.00,,,0.00,Wunderground v.1.15,2013-02-25 16:25:00,
2013-02-25 11:30:00,38.2,25.1,30.22,ESE,111,1.0,2.0,59,0.00,,,0.00,Wunderground v.1.15,2013-02-25 16:30:00,
2013-02-25 11:35:00,38.3,24.8,30.22,SE,126,1.0,2.0,58,0.00,,,0.00,Wunderground v.1.15,2013-02-25 16:35:00,
2013-02-25 11:41:00,37.7,25.1,30.22,SE,126,2.0,2.0,60,0.00,,,0.00,Wunderground v.1.15,2013-02-25 16:41:00,
2013-02-25 11:47:00,37.1,24.1,30.22,SE,126,2.0,3.0,59,0.00,,,0.00,Wunderground v.1.15,2013-02-25 16:47:00,
2013-02-25 11:52:00,37.3,25.5,30.22,SE,124,2.0,3.0,62,0.00,,,0.00,Wunderground v.1.15,2013-02-25 16:52:00,
2013-02-25 11:57:00,37.7,25.1,30.22,SE,124,2.0,3.0,60,0.00,,,0.00,Wunderground v.1.15,2013-02-25 16:57:00,
2013-02-25 12:03:00,38.2,25.5,30.22,SE,124,1.0,4.0,60,0.00,,,0.00,Wunderground v.1.15,2013-02-25 17:03:00,
2013-02-25 12:09:00,39.2,25.6,30.22,SE,140,3.0,5.0,58,0.00,,,0.00,Wunderground v.1.15,2013-02-25 17:09:00,
2013-02-25 12:14:00,39.1,25.6,30.22,South,178,4.0,7.0,58,0.00,,,0.00,Wunderground v.1.15,2013-02-25 17:14:00,
2013-02-25 12:19:00,38.3,24.4,30.21,SSW,202,4.0,7.0,57,0.00,,,0.00,Wunderground v.1.15,2013-02-25 17:19:00,
2013-02-25 12:25:00,38.7,24.8,30.21,SSE,158,4.0,6.0,57,0.00,,,0.00,Wunderground v.1.15,2013-02-25 17:25:00,
2013-02-25 12:30:00,37.9,24.4,30.21,South,176,4.0,5.0,58,0.00,,,0.00,Wunderground v.1.15,2013-02-25 17:30:00,
2013-02-25 12:36:00,37.5,24.1,30.21,South,177,4.0,6.0,58,0.00,,,0.00,Wunderground v.1.15,2013-02-25 17:36:00,
2013-02-25 12:41:00,37.9,24.8,30.21,South,177,3.0,3.0,59,0.00,,,0.00,Wunderground v.1.15,2013-02-25 17:41:00,
2013-02-25 12:47:00,39.2,26.1,30.20,SE,132,1.0,5.0,59,0.00,,,0.00,Wunderground v.1.15,2013-02-25 17:47:00,
2013-02-25 12:52:00,39.1,24.7,30.20,ESE,102,2.0,2.0,56,0.00,,,0.00,Wunderground v.1.15,2013-02-25 17:52:00,
2013-02-25 12:57:00,38.9,25.4,30.20,East,94,3.0,3.0,58,0.00,,,0.00,Wunderground v.1.15,2013-02-25 17:57:00,
2013-02-25 13:03:00,38.9,25.4,30.20,East,98,3.0,3.0,58,0.00,,,0.00,Wunderground v.1.15,2013-02-25 18:03:00,
2013-02-25 13:08:00,38.7,24.8,30.20,East,101,2.0,5.0,57,0.00,,,0.00,Wunderground v.1.15,2013-02-25 18:08:00,
2013-02-25 13:14:00,39.9,26.7,30.19,ESE,115,2.0,5.0,59,0.00,,,0.00,Wunderground v.1.15,2013-02-25 18:14:00,
2013-02-25 13:19:00,39.2,24.4,30.19,SE,141,3.0,6.0,55,0.00,,,0.00,Wunderground v.1.15,2013-02-25 18:19:00,
2013-02-25 13:25:00,38.2,23.9,30.18,SSW,204,4.0,6.0,56,0.00,,,0.00,Wunderground v.1.15,2013-02-25 18:25:00,
2013-02-25 13:30:00,38.9,24.9,30.18,SSW,201,3.0,3.0,57,0.00,,,0.00,Wunderground v.1.15,2013-02-25 18:30:00,
2013-02-25 13:35:00,39.1,24.3,30.18,ESE,117,2.0,3.0,55,0.00,,,0.00,Wunderground v.1.15,2013-02-25 18:35:00,
2013-02-25 13:41:00,38.7,25.2,30.18,ESE,117,1.0,1.0,58,0.00,,,0.00,Wunderground v.1.15,2013-02-25 18:41:00,
2013-02-25 13:46:00,39.3,24.5,30.18,ESE,117,1.0,3.0,55,0.00,,,0.00,Wunderground v.1.15,2013-02-25 18:46:00,
2013-02-25 13:52:00,38.9,24.5,30.17,South,175,2.0,5.0,56,0.00,,,0.00,Wunderground v.1.15,2013-02-25 18:52:00,
2013-02-25 13:57:00,40.4,25.1,30.17,SE,134,2.0,5.0,54,0.00,,,0.00,Wunderground v.1.15,2013-02-25 18:57:00,
2013-02-25 14:02:00,39.5,25.1,30.17,South,171,2.0,4.0,56,0.00,,,0.00,Wunderground v.1.15,2013-02-25 19:02:00,
2013-02-25 14:08:00,39.1,24.3,30.16,SSW,193,3.0,5.0,55,0.00,,,0.00,Wunderground v.1.15,2013-02-25 19:08:00,
2013-02-25 14:13:00,39.5,24.7,30.16,South,190,3.0,3.0,55,0.00,,,0.00,Wunderground v.1.15,2013-02-25 19:13:00,
2013-02-25 14:19:00,39.5,25.1,30.16,SSE,161,2.0,3.0,56,0.00,,,0.00,Wunderground v.1.15,2013-02-25 19:19:00,
2013-02-25 14:24:00,40.0,24.7,30.16,SSE,161,1.0,3.0,54,0.00,,,0.00,Wunderground v.1.15,2013-02-25 19:24:00,
2013-02-25 14:29:00,40.5,25.1,30.16,SSE,150,2.0,4.0,54,0.00,,,0.00,Wunderground v.1.15,2013-02-25 19:29:00,
2013-02-25 14:34:00,40.6,27.0,30.16,SSE,148,2.0,4.0,58,0.00,,,0.00,Wunderground v.1.15,2013-02-25 19:34:00,
2013-02-25 14:40:00,39.7,24.8,30.15,SSW,194,2.0,3.0,55,0.00,,,0.00,Wunderground v.1.15,2013-02-25 19:40:00,
2013-02-25 14:45:00,40.4,25.9,30.15,ESE,111,3.0,5.0,56,0.00,,,0.00,Wunderground v.1.15,2013-02-25 19:45:00,
2013-02-25 14:51:00,41.3,25.4,30.15,ESE,104,3.0,3.0,53,0.00,,,0.00,Wunderground v.1.15,2013-02-25 19:51:00,
2013-02-25 14:56:00,40.6,25.7,30.15,ESE,105,2.0,4.0,55,0.00,,,0.00,Wunderground v.1.15,2013-02-25 19:56:00,
2013-02-25 15:02:00,40.6,25.7,30.15,East,96,2.0,5.0,55,0.00,,,0.00,Wunderground v.1.15,2013-02-25 20:02:00,
2013-02-25 15:07:00,40.8,25.9,30.15,East,95,2.0,5.0,55,0.00,,,0.00,Wunderground v.1.15,2013-02-25 20:07:00,
2013-02-25 15:13:00,41.2,26.7,30.16,East,97,2.0,2.0,56,0.00,,,0.00,Wunderground v.1.15,2013-02-25 20:13:00,
2013-02-25 15:18:00,41.4,26.4,30.16,ESE,106,3.0,7.0,55,0.00,,,0.00,Wunderground v.1.15,2013-02-25 20:18:00,
2013-02-25 15:24:00,41.3,26.3,30.15,ESE,106,3.0,4.0,55,0.00,,,0.00,Wunderground v.1.15,2013-02-25 20:24:00,
2013-02-25 15:29:00,41.0,25.6,30.16,ESE,107,2.0,4.0,54,0.00,,,0.00,Wunderground v.1.15,2013-02-25 20:29:00,
2013-02-25 15:35:00,41.5,26.5,30.16,East,101,3.0,6.0,55,0.00,,,0.00,Wunderground v.1.15,2013-02-25 20:35:00,
2013-02-25 15:41:00,41.9,26.4,30.16,ESE,102,3.0,5.0,54,0.00,,,0.00,Wunderground v.1.15,2013-02-25 20:41:00,
2013-02-25 15:46:00,40.9,25.5,30.16,SSE,161,3.0,5.0,54,0.00,,,0.00,Wunderground v.1.15,2013-02-25 20:46:00,
2013-02-25 15:51:00,40.3,25.8,30.16,South,180,3.0,3.0,56,0.00,,,0.00,Wunderground v.1.15,2013-02-25 20:51:00,
2013-02-25 15:57:00,40.9,25.5,30.16,SSW,209,2.0,8.0,54,0.00,,,0.00,Wunderground v.1.15,2013-02-25 20:57:00,
2013-02-25 16:02:00,40.9,26.0,30.16,SE,129,3.0,3.0,55,0.00,,,0.00,Wunderground v.1.15,2013-02-25 21:02:00,
2013-02-25 16:07:00,41.5,27.0,30.16,SSE,159,4.0,7.0,56,0.00,,,0.00,Wunderground v.1.15,2013-02-25 21:07:00,
2013-02-25 16:13:00,41.2,26.2,30.15,SE,134,3.0,3.0,55,0.00,,,0.00,Wunderground v.1.15,2013-02-25 21:13:00,
2013-02-25 16:18:00,41.5,27.0,30.15,ESE,115,3.0,6.0,56,0.00,,,0.00,Wunderground v.1.15,2013-02-25 21:18:00,
2013-02-25 16:23:00,41.5,27.8,30.15,SE,126,3.0,4.0,58,0.00,,,0.00,Wunderground v.1.15,2013-02-25 21:23:00,
2013-02-25 16:28:00,41.4,26.9,30.15,ESE,107,3.0,7.0,56,0.00,,,0.00,Wunderground v.1.15,2013-02-25 21:28:00,
2013-02-25 16:34:00,41.2,26.2,30.15,ESE,102,3.0,5.0,55,0.00,,,0.00,Wunderground v.1.15,2013-02-25 21:34:00,
2013-02-25 16:39:00,41.3,26.3,30.15,SE,127,3.0,5.0,55,0.00,,,0.00,Wunderground v.1.15,2013-02-25 21:39:00,
2013-02-25 16:44:00,41.1,26.6,30.15,East,96,3.0,5.0,56,0.00,,,0.00,Wunderground v.1.15,2013-02-25 21:44:00,
2013-02-25 16:50:00,40.8,26.3,30.15,East,94,3.0,6.0,56,0.00,,,0.00,Wunderground v.1.15,2013-02-25 21:50:00,
2013-02-25 16:55:00,40.6,26.5,30.15,East,96,4.0,8.0,57,0.00,,,0.00,Wunderground v.1.15,2013-02-25 21:55:00,
2013-02-25 17:00:00,40.6,26.5,30.15,SE,128,4.0,4.0,57,0.00,,,0.00,Wunderground v.1.15,2013-02-25 22:00:00,
2013-02-25 17:06:00,40.4,26.4,30.15,ESE,117,3.0,5.0,57,0.00,,,0.00,Wunderground v.1.15,2013-02-25 22:06:00,
2013-02-25 17:11:00,40.4,26.8,30.14,SE,132,3.0,4.0,58,0.00,,,0.00,Wunderground v.1.15,2013-02-25 22:11:00,
2013-02-25 17:17:00,40.2,26.2,30.14,East,101,4.0,8.0,57,0.00,,,0.00,Wunderground v.1.15,2013-02-25 22:17:00,
2013-02-25 17:22:00,40.1,26.5,30.14,East,86,5.0,6.0,58,0.00,,,0.00,Wunderground v.1.15,2013-02-25 22:22:00,
2013-02-25 17:27:00,39.8,26.2,30.14,ESE,107,5.0,7.0,58,0.00,,,0.00,Wunderground v.1.15,2013-02-25 22:27:00,
2013-02-25 17:32:00,39.6,26.4,30.14,East,91,6.0,6.0,59,0.00,,,0.00,Wunderground v.1.15,2013-02-25 22:32:00,
2013-02-25 17:38:00,39.3,25.7,30.13,ESE,112,6.0,7.0,58,0.00,,,0.00,Wunderground v.1.15,2013-02-25 22:38:00,
2013-02-25 17:43:00,38.9,25.8,30.14,East,96,6.0,8.0,59,0.00,,,0.00,Wunderground v.1.15,2013-02-25 22:43:00,
2013-02-25 17:49:00,38.8,26.1,30.14,ESE,123,5.0,8.0,60,0.00,,,0.00,Wunderground v.1.15,2013-02-25 22:49:00,
2013-02-25 17:54:00,38.6,25.9,30.14,East,98,4.0,6.0,60,0.00,,,0.00,Wunderground v.1.15,2013-02-25 22:54:00,
2013-02-25 17:59:00,38.4,26.1,30.14,ESE,123,5.0,6.0,61,0.00,,,0.00,Wunderground v.1.15,2013-02-25 22:59:00,
2013-02-25 18:05:00,38.2,25.9,30.14,ESE,113,5.0,7.0,61,0.00,,,0.00,Wunderground v.1.15,2013-02-25 23:05:00,
2013-02-25 18:10:00,37.9,26.0,30.14,ESE,109,5.0,8.0,62,0.00,,,0.00,Wunderground v.1.15,2013-02-25 23:10:00,
2013-02-25 18:15:00,37.7,26.6,30.14,ESE,120,4.0,8.0,64,0.00,,,0.00,Wunderground v.1.15,2013-02-25 23:15:00,
2013-02-25 18:20:00,37.5,26.8,30.14,ESE,120,5.0,7.0,65,0.00,,,0.00,Wunderground v.1.15,2013-02-25 23:20:00,
2013-02-25 18:25:00,37.2,26.9,30.14,ESE,104,6.0,7.0,66,0.00,,,0.00,Wunderground v.1.15,2013-02-25 23:25:00,
2013-02-25 18:31:00,36.9,26.6,30.15,ESE,106,6.0,8.0,66,0.00,,,0.00,Wunderground v.1.15,2013-02-25 23:31:00,
2013-02-25 18:37:00,36.6,27.0,30.15,ESE,106,5.0,8.0,68,0.00,,,0.00,Wunderground v.1.15,2013-02-25 23:37:00,
2013-02-25 18:42:00,36.4,26.8,30.15,East,94,4.0,5.0,68,0.00,,,0.00,Wunderground v.1.15,2013-02-25 23:42:00,
2013-02-25 18:47:00,36.2,27.0,30.15,ESE,107,4.0,6.0,69,0.00,,,0.00,Wunderground v.1.15,2013-02-25 23:47:00,
2013-02-25 18:53:00,35.9,27.1,30.15,ESE,103,5.0,5.0,70,0.00,,,0.00,Wunderground v.1.15,2013-02-25 23:53:00,
2013-02-25 18:58:00,35.7,26.9,30.15,East,93,4.0,5.0,70,0.00,,,0.00,Wunderground v.1.15,2013-02-25 23:58:00,
2013-02-25 19:03:00,35.6,27.1,30.16,ESE,108,4.0,5.0,71,0.00,,,0.00,Wunderground v.1.15,2013-02-26 00:03:00,
2013-02-25 19:09:00,35.3,26.8,30.16,ESE,105,4.0,5.0,71,0.00,,,0.00,Wunderground v.1.15,2013-02-26 00:09:00,
2013-02-25 19:14:00,35.1,27.0,30.16,East,98,4.0,7.0,72,0.00,,,0.00,Wunderground v.1.15,2013-02-26 00:14:00,
2013-02-25 19:19:00,34.9,26.8,30.16,East,95,4.0,7.0,72,0.00,,,0.00,Wunderground v.1.15,2013-02-26 00:19:00,
2013-02-25 19:24:00,34.8,26.7,30.16,East,95,4.0,5.0,72,0.00,,,0.00,Wunderground v.1.15,2013-02-26 00:24:00,
2013-02-25 19:30:00,34.6,26.8,30.16,ESE,104,4.0,5.0,73,0.00,,,0.00,Wunderground v.1.15,2013-02-26 00:30:00,
2013-02-25 19:35:00,34.4,26.6,30.16,ESE,106,4.0,5.0,73,0.00,,,0.00,Wunderground v.1.15,2013-02-26 00:35:00,
2013-02-25 19:41:00,34.3,26.9,30.16,ESE,103,4.0,6.0,74,0.00,,,0.00,Wunderground v.1.15,2013-02-26 00:41:00,
2013-02-25 19:46:00,34.1,26.7,30.16,ESE,107,3.0,6.0,74,0.00,,,0.00,Wunderground v.1.15,2013-02-26 00:46:00,
2013-02-25 19:52:00,33.9,26.5,30.17,ESE,110,3.0,3.0,74,0.00,,,0.00,Wunderground v.1.15,2013-02-26 00:52:00,
2013-02-25 19:57:00,33.9,26.8,30.17,ESE,114,3.0,5.0,75,0.00,,,0.00,Wunderground v.1.15,2013-02-26 00:57:00,
2013-02-25 20:02:00,33.9,26.5,30.17,ESE,115,3.0,7.0,74,0.00,,,0.00,Wunderground v.1.15,2013-02-26 01:02:00,
2013-02-25 20:08:00,33.7,26.3,30.17,ESE,108,4.0,7.0,74,0.00,,,0.00,Wunderground v.1.15,2013-02-26 01:08:00,
2013-02-25 20:13:00,33.5,26.4,30.17,ESE,111,4.0,4.0,75,0.00,,,0.00,Wunderground v.1.15,2013-02-26 01:13:00,
2013-02-25 20:18:00,33.4,26.3,30.17,ESE,109,3.0,4.0,75,0.00,,,0.00,Wunderground v.1.15,2013-02-26 01:18:00,
2013-02-25 20:24:00,33.1,26.0,30.16,ESE,110,3.0,3.0,75,0.00,,,0.00,Wunderground v.1.15,2013-02-26 01:24:00,
2013-02-25 20:29:00,33.0,26.3,30.16,ESE,109,3.0,4.0,76,0.00,,,0.00,Wunderground v.1.15,2013-02-26 01:29:00,
2013-02-25 20:34:00,32.8,26.1,30.15,ESE,107,3.0,4.0,76,0.00,,,0.00,Wunderground v.1.15,2013-02-26 01:34:00,
2013-02-25 20:39:00,32.7,26.0,30.15,ESE,105,3.0,4.0,76,0.00,,,0.00,Wunderground v.1.15,2013-02-26 01:39:00,
2013-02-25 20:45:00,32.5,25.8,30.14,ESE,102,3.0,4.0,76,0.00,,,0.00,Wunderground v.1.15,2013-02-26 01:45:00,
2013-02-25 20:50:00,32.4,26.0,30.13,ESE,102,3.0,3.0,77,0.00,,,0.00,Wunderground v.1.15,2013-02-26 01:50:00,
2013-02-25 20:55:00,32.3,25.9,30.13,East,101,2.0,3.0,77,0.00,,,0.00,Wunderground v.1.15,2013-02-26 01:55:00,
2013-02-25 21:01:00,32.3,25.9,30.13,East,96,3.0,5.0,77,0.00,,,0.00,Wunderground v.1.15,2013-02-26 02:01:00,
2013-02-25 21:06:00,32.3,25.9,30.13,East,87,3.0,5.0,77,0.00,,,0.00,Wunderground v.1.15,2013-02-26 02:06:00,
2013-02-25 21:11:00,32.2,25.5,30.12,East,87,4.0,4.0,76,0.00,,,0.00,Wunderground v.1.15,2013-02-26 02:11:00,
2013-02-25 21:16:00,32.1,25.4,30.12,East,85,4.0,4.0,76,0.00,,,0.00,Wunderground v.1.15,2013-02-26 02:16:00,
2013-02-25 21:22:00,32.1,25.4,30.12,East,87,3.0,3.0,76,0.00,,,0.00,Wunderground v.1.15,2013-02-26 02:22:00,
2013-02-25 21:28:00,32.0,25.3,30.13,East,89,3.0,5.0,76,0.00,,,0.00,Wunderground v.1.15,2013-02-26 02:28:00,
2013-02-25 21:33:00,31.8,25.1,30.12,ENE,78,3.0,6.0,76,0.00,,,0.00,Wunderground v.1.15,2013-02-26 02:33:00,
2013-02-25 21:38:00,31.7,25.0,30.12,East,90,4.0,6.0,76,0.00,,,0.00,Wunderground v.1.15,2013-02-26 02:38:00,
2013-02-25 21:44:00,31.6,24.6,30.12,East,94,4.0,6.0,75,0.00,,,0.00,Wunderground v.1.15,2013-02-26 02:44:00,
2013-02-25 21:49:00,31.6,24.6,30.11,East,93,4.0,6.0,75,0.00,,,0.00,Wunderground v.1.15,2013-02-26 02:49:00,
2013-02-25 21:54:00,31.5,24.5,30.11,East,92,3.0,4.0,75,0.00,,,0.00,Wunderground v.1.15,2013-02-26 02:54:00,
2013-02-25 22:00:00,31.4,24.4,30.10,East,88,4.0,4.0,75,0.00,,,0.00,Wunderground v.1.15,2013-02-26 03:00:00,
2013-02-25 22:06:00,31.2,24.2,30.11,East,94,4.0,6.0,75,0.00,,,0.00,Wunderground v.1.15,2013-02-26 03:06:00,
2013-02-25 22:11:00,31.1,24.1,30.11,East,93,3.0,5.0,75,0.00,,,0.00,Wunderground v.1.15,2013-02-26 03:11:00,
2013-02-25 22:16:00,31.1,24.1,30.10,East,94,4.0,7.0,75,0.00,,,0.00,Wunderground v.1.15,2013-02-26 03:16:00,
2013-02-25 22:22:00,31.1,23.8,30.10,East,95,5.0,6.0,74,0.00,,,0.00,Wunderground v.1.15,2013-02-26 03:22:00,
2013-02-25 22:27:00,31.1,23.8,30.11,East,96,4.0,6.0,74,0.00,,,0.00,Wunderground v.1.15,2013-02-26 03:27:00,
2013-02-25 22:32:00,31.1,23.8,30.11,East,96,3.0,3.0,74,0.00,,,0.00,Wunderground v.1.15,2013-02-26 03:32:00,
2013-02-25 22:37:00,31.0,23.7,30.11,East,97,2.0,3.0,74,0.00,,,0.00,Wunderground v.1.15,2013-02-26 03:37:00,
2013-02-25 22:43:00,31.0,23.7,30.12,East,98,2.0,5.0,74,0.00,,,0.00,Wunderground v.1.15,2013-02-26 03:43:00,
2013-02-25 22:48:00,31.0,23.7,30.13,East,100,2.0,5.0,74,0.00,,,0.00,Wunderground v.1.15,2013-02-26 03:48:00,
2013-02-25 22:54:00,30.9,23.6,30.13,East,100,2.0,3.0,74,0.00,,,0.00,Wunderground v.1.15,2013-02-26 03:54:00,
2013-02-25 23:00:00,30.8,23.5,30.13,East,100,2.0,2.0,74,0.00,,,0.00,Wunderground v.1.15,2013-02-26 04:00:00,
2013-02-25 23:06:00,30.8,23.5,30.13,East,99,2.0,2.0,74,0.00,,,0.00,Wunderground v.1.15,2013-02-26 04:06:00,
2013-02-25 23:11:00,30.6,23.3,30.13,East,99,2.0,3.0,74,0.00,,,0.00,Wunderground v.1.15,2013-02-26 04:11:00,
2013-02-25 23:16:00,30.5,23.2,30.13,East,99,2.0,3.0,74,0.00,,,0.00,Wunderground v.1.15,2013-02-26 04:16:00,
2013-02-25 23:22:00,30.4,23.1,30.13,East,99,2.0,5.0,74,0.00,,,0.00,Wunderground v.1.15,2013-02-26 04:22:00,
2013-02-25 23:27:00,30.4,23.1,30.13,East,99,2.0,5.0,74,0.00,,,0.00,Wunderground v.1.15,2013-02-26 04:27:00,
2013-02-25 23:32:00,30.2,22.9,30.12,East,99,2.0,2.0,74,0.00,,,0.00,Wunderground v.1.15,2013-02-26 04:32:00,
2013-02-25 23:38:00,30.2,23.2,30.13,East,99,2.0,3.0,75,0.00,,,0.00,Wunderground v.1.15,2013-02-26 04:38:00,
2013-02-25 23:43:00,30.1,22.8,30.13,East,99,2.0,3.0,74,0.00,,,0.00,Wunderground v.1.15,2013-02-26 04:43:00,
2013-02-25 23:49:00,30.1,22.8,30.13,East,99,2.0,3.0,74,0.00,,,0.00,Wunderground v.1.15,2013-02-26 04:49:00,
2013-02-25 23:54:00,30.1,22.8,30.13,East,99,2.0,3.0,74,0.00,,,0.00,Wunderground v.1.15,2013-02-26 04:54:00,
2013-02-25 23:59:00,30.0,22.7,30.13,East,99,2.0,3.0,74,0.00,,,0.00,Wunderground v.1.15,2013-02-26 04:59:00,